createdAt,value
2018-07-30T00:00:45.860Z,51.59
2018-07-30T00:03:14.945Z,50.87
2018-07-30T00:05:43.650Z,50.87
2018-07-30T00:08:12.471Z,50.61
2018-07-30T00:10:41.450Z,50.96
2018-07-30T00:13:10.247Z,50.62
2018-07-30T00:15:38.979Z,51.50
2018-07-30T00:18:07.806Z,51.40
2018-07-30T00:20:36.830Z,52.08
2018-07-30T00:23:05.572Z,52.16
2018-07-30T00:25:34.331Z,52.35
2018-07-30T00:28:03.437Z,52.01
2018-07-30T00:30:32.182Z,52.90
2018-07-30T00:33:01.615Z,52.08
2018-07-30T00:35:30.430Z,53.02
2018-07-30T00:37:59.761Z,53.06
2018-07-30T00:40:28.470Z,53.01
2018-07-30T00:42:57.258Z,53.65
2018-07-30T00:45:26.496Z,53.50
2018-07-30T00:47:55.990Z,53.28
2018-07-30T00:50:25.226Z,53.23
2018-07-30T00:52:53.971Z,54.03
2018-07-30T00:55:22.962Z,54.43
2018-07-30T00:57:52.078Z,53.95
2018-07-30T01:00:21.341Z,54.71
2018-07-30T01:02:50.108Z,54.67
2018-07-30T01:05:19.162Z,55.30
2018-07-30T01:07:47.954Z,54.92
2018-07-30T01:10:17.041Z,54.38
2018-07-30T01:12:45.746Z,53.96
2018-07-30T01:15:14.895Z,53.80
2018-07-30T01:17:44.555Z,54.18
2018-07-30T01:20:13.527Z,53.91
2018-07-30T01:22:42.566Z,53.85
2018-07-30T01:25:12.255Z,54.53
2018-07-30T01:27:41.591Z,54.52
2018-07-30T01:30:10.738Z,54.38
2018-07-30T01:32:39.890Z,53.88
2018-07-30T01:35:14.994Z,53.99
2018-07-30T01:37:44.118Z,53.87
2018-07-30T01:40:12.867Z,54.23
2018-07-30T01:42:41.602Z,54.32
2018-07-30T01:45:10.618Z,54.04
2018-07-30T01:47:39.826Z,54.21
2018-07-30T01:50:08.845Z,54.59
2018-07-30T01:52:41.647Z,54.80
2018-07-30T01:55:10.511Z,54.44
2018-07-30T01:57:39.837Z,54.39
2018-07-30T02:00:08.908Z,54.73
2018-07-30T02:02:42.619Z,54.73
2018-07-30T02:05:14.156Z,54.72
2018-07-30T02:07:43.779Z,54.32
2018-07-30T02:10:12.901Z,55.03
2018-07-30T02:12:42.213Z,54.89
2018-07-30T02:15:11.286Z,54.89
2018-07-30T02:17:40.663Z,55.67
2018-07-30T02:20:09.519Z,55.55
2018-07-30T02:22:38.411Z,55.30
2018-07-30T02:25:08.566Z,56.01
2018-07-30T02:27:37.645Z,55.62
2018-07-30T02:30:07.855Z,56.40
2018-07-30T02:32:37.105Z,56.62
2018-07-30T02:35:07.973Z,57.02
2018-07-30T02:37:37.546Z,56.51
2018-07-30T02:40:08.387Z,56.29
2018-07-30T02:42:37.126Z,56.20
2018-07-30T02:45:06.852Z,55.69
2018-07-30T02:47:35.546Z,56.30
2018-07-30T02:50:04.897Z,55.58
2018-07-30T02:52:34.109Z,56.51
2018-07-30T02:55:03.765Z,56.66
2018-07-30T02:57:33.928Z,56.07
2018-07-30T03:00:02.711Z,55.86
2018-07-30T03:02:31.575Z,55.82
2018-07-30T03:05:00.412Z,56.35
2018-07-30T03:07:29.214Z,56.13
2018-07-30T03:09:58.394Z,56.88
2018-07-30T03:12:27.183Z,56.55
2018-07-30T03:14:56.035Z,56.77
2018-07-30T03:17:24.795Z,56.92
2018-07-30T03:19:53.554Z,57.18
2018-07-30T03:22:22.327Z,57.20
2018-07-30T03:24:51.290Z,57.28
2018-07-30T03:27:20.462Z,57.32
2018-07-30T03:29:49.466Z,57.07
2018-07-30T03:32:18.245Z,57.28
2018-07-30T03:34:46.966Z,58.03
2018-07-30T03:37:15.753Z,58.14
2018-07-30T03:39:45.633Z,57.57
2018-07-30T03:42:14.443Z,57.96
2018-07-30T03:44:43.738Z,58.36
2018-07-30T03:47:12.766Z,58.29
2018-07-30T03:49:41.818Z,57.87
2018-07-30T03:52:10.574Z,58.31
2018-07-30T03:54:39.602Z,58.35
2018-07-30T03:57:08.303Z,58.35
2018-07-30T03:59:37.258Z,58.12
2018-07-30T04:02:06.828Z,59.12
2018-07-30T04:04:35.888Z,59.31
2018-07-30T04:07:05.451Z,58.94
2018-07-30T04:09:34.497Z,58.31
2018-07-30T04:12:03.255Z,58.89
2018-07-30T04:14:32.031Z,58.21
2018-07-30T04:17:01.132Z,59.31
2018-07-30T04:19:29.894Z,59.50
2018-07-30T04:21:58.661Z,59.88
2018-07-30T04:24:27.627Z,60.42
2018-07-30T04:26:56.588Z,60.17
2018-07-30T04:29:25.354Z,60.29
2018-07-30T04:31:54.136Z,61.26
2018-07-30T04:34:23.938Z,61.47
2018-07-30T04:36:52.668Z,61.63
2018-07-30T04:39:21.415Z,62.30
2018-07-30T04:41:50.177Z,62.03
2018-07-30T04:44:18.908Z,62.16
2018-07-30T04:46:47.613Z,61.96
2018-07-30T04:49:16.463Z,62.36
2018-07-30T04:51:45.200Z,62.43
2018-07-30T04:54:14.189Z,62.68
2018-07-30T04:56:42.987Z,62.67
2018-07-30T04:59:11.984Z,62.60
2018-07-30T05:01:40.969Z,63.03
2018-07-30T05:04:10.208Z,63.23
2018-07-30T05:06:39.435Z,63.84
2018-07-30T05:09:09.174Z,63.84
2018-07-30T05:11:38.468Z,63.36
2018-07-30T05:14:07.512Z,63.50
2018-07-30T05:16:36.239Z,64.13
2018-07-30T05:19:05.168Z,64.68
2018-07-30T05:21:34.431Z,64.56
2018-07-30T05:24:03.549Z,64.97
2018-07-30T05:26:33.021Z,64.94
2018-07-30T05:29:01.799Z,65.72
2018-07-30T05:31:30.727Z,65.19
2018-07-30T05:34:00.173Z,65.99
2018-07-30T05:36:28.975Z,66.10
2018-07-30T05:38:58.088Z,65.89
2018-07-30T05:41:27.244Z,66.13
2018-07-30T05:43:56.268Z,65.23
2018-07-30T05:46:25.526Z,65.93
2018-07-30T05:48:54.751Z,64.98
2018-07-30T05:51:24.118Z,65.01
2018-07-30T05:53:53.149Z,65.17
2018-07-30T05:56:21.918Z,64.53
2018-07-30T05:58:50.667Z,64.49
2018-07-30T06:01:19.431Z,64.41
2018-07-30T06:03:48.190Z,63.62
2018-07-30T06:06:17.337Z,63.51
2018-07-30T06:08:46.162Z,62.82
2018-07-30T06:11:14.892Z,62.82
2018-07-30T06:13:43.810Z,62.11
2018-07-30T06:16:12.542Z,62.35
2018-07-30T06:18:41.266Z,61.61
2018-07-30T06:21:09.973Z,61.61
2018-07-30T06:23:39.421Z,60.93
2018-07-30T06:26:08.170Z,60.35
2018-07-30T06:28:36.869Z,61.14
2018-07-30T06:31:05.933Z,60.66
2018-07-30T06:33:34.644Z,60.44
2018-07-30T06:36:03.678Z,60.22
2018-07-30T06:38:32.551Z,60.51
2018-07-30T06:41:01.410Z,59.63
2018-07-30T06:43:30.551Z,59.80
2018-07-30T06:45:59.266Z,59.43
2018-07-30T06:48:28.139Z,59.24
2018-07-30T06:50:57.112Z,58.76
2018-07-30T06:53:25.882Z,58.20
2018-07-30T06:55:54.615Z,58.18
2018-07-30T06:58:23.355Z,57.92
2018-07-30T07:00:52.130Z,56.86
2018-07-30T07:03:21.156Z,57.08
2018-07-30T07:05:49.788Z,57.94
2018-07-30T07:08:19.027Z,57.75
2018-07-30T07:10:48.043Z,57.37
2018-07-30T07:13:16.810Z,57.00
2018-07-30T07:15:45.554Z,57.41
2018-07-30T07:18:14.533Z,56.95
2018-07-30T07:20:44.131Z,56.21
2018-07-30T07:23:13.296Z,56.39
2018-07-30T07:25:42.115Z,56.64
2018-07-30T07:28:10.787Z,56.34
2018-07-30T07:30:39.596Z,56.60
2018-07-30T07:33:08.390Z,56.02
2018-07-30T07:35:37.090Z,56.19
2018-07-30T07:38:06.028Z,56.13
2018-07-30T07:40:40.989Z,56.28
2018-07-30T07:43:10.397Z,55.23
2018-07-30T07:45:39.162Z,55.23
2018-07-30T07:48:07.880Z,54.40
2018-07-30T07:50:37.035Z,53.76
2018-07-30T07:53:05.984Z,53.25
2018-07-30T07:55:35.039Z,52.39
2018-07-30T07:58:04.401Z,52.13
2018-07-30T08:00:33.401Z,51.87
2018-07-30T08:03:02.457Z,50.54
2018-07-30T08:05:31.220Z,50.88
2018-07-30T08:07:59.963Z,51.04
2018-07-30T08:10:34.910Z,50.50
2018-07-30T08:13:03.621Z,50.70
2018-07-30T08:15:32.911Z,50.18
2018-07-30T08:18:02.502Z,49.79
2018-07-30T08:20:31.498Z,48.96
2018-07-30T08:23:00.439Z,49.94
2018-07-30T08:25:29.207Z,49.95
2018-07-30T08:27:58.296Z,49.23
2018-07-30T08:30:27.367Z,49.28
2018-07-30T08:32:56.206Z,50.12
2018-07-30T08:35:25.009Z,48.39
2018-07-30T08:37:53.977Z,48.28
2018-07-30T08:40:22.687Z,48.15
2018-07-30T08:42:51.436Z,49.15
2018-07-30T08:45:20.420Z,49.91
2018-07-30T08:47:49.108Z,49.08
2018-07-30T08:50:18.186Z,49.76
2018-07-30T08:52:48.121Z,49.60
2018-07-30T08:55:16.863Z,50.12
2018-07-30T08:57:45.611Z,49.84
2018-07-30T09:00:15.263Z,50.24
2018-07-30T09:02:44.230Z,49.26
2018-07-30T09:05:13.492Z,48.34
2018-07-30T09:07:42.592Z,48.90
2018-07-30T09:10:11.313Z,48.33
2018-07-30T09:12:40.388Z,48.30
2018-07-30T09:15:09.185Z,47.23
2018-07-30T09:17:37.943Z,46.56
2018-07-30T09:20:07.161Z,47.23
2018-07-30T09:22:36.668Z,46.52
2018-07-30T09:25:05.397Z,45.62
2018-07-30T09:27:34.835Z,45.49
2018-07-30T09:30:03.676Z,44.55
2018-07-30T09:32:32.511Z,44.86
2018-07-30T09:35:01.639Z,43.57
2018-07-30T09:37:30.351Z,43.36
2018-07-30T09:39:59.091Z,42.73
2018-07-30T09:42:28.096Z,40.83
2018-07-30T09:44:56.917Z,41.73
2018-07-30T09:47:25.987Z,41.99
2018-07-30T09:49:54.804Z,40.61
2018-07-30T09:52:23.583Z,40.65
2018-07-30T09:54:52.446Z,40.40
2018-07-30T09:57:21.159Z,40.27
2018-07-30T09:59:49.903Z,39.93
2018-07-30T10:02:18.679Z,39.80
2018-07-30T10:04:47.760Z,39.08
2018-07-30T10:07:16.547Z,37.86
2018-07-30T10:09:45.338Z,37.61
2018-07-30T10:12:14.062Z,38.13
2018-07-30T10:14:43.460Z,37.66
2018-07-30T10:17:13.394Z,36.29
2018-07-30T10:19:42.452Z,37.12
2018-07-30T10:22:11.485Z,36.38
2018-07-30T10:24:40.530Z,35.34
2018-07-30T10:27:09.280Z,35.71
2018-07-30T10:29:38.257Z,34.57
2018-07-30T10:32:07.253Z,34.44
2018-07-30T10:34:36.125Z,34.23
2018-07-30T10:37:05.282Z,33.19
2018-07-30T10:39:34.015Z,33.46
2018-07-30T10:42:02.962Z,33.14
2018-07-30T10:44:32.074Z,33.36
2018-07-30T10:47:01.125Z,32.96
2018-07-30T10:49:29.868Z,32.18
2018-07-30T10:51:58.910Z,32.32
2018-07-30T10:54:28.286Z,32.73
2018-07-30T10:56:57.030Z,32.84
2018-07-30T10:59:25.834Z,31.70
2018-07-30T11:01:54.577Z,31.55
2018-07-30T11:04:23.865Z,32.02
2018-07-30T11:06:52.985Z,32.12
2018-07-30T11:09:21.735Z,32.58
2018-07-30T11:11:50.708Z,32.00
2018-07-30T11:14:19.962Z,31.47
2018-07-30T11:16:48.758Z,31.44
2018-07-30T11:19:17.477Z,31.15
2018-07-30T11:21:46.825Z,31.03
2018-07-30T11:24:15.599Z,31.67
2018-07-30T11:26:44.888Z,31.52
2018-07-30T11:29:13.928Z,31.88
2018-07-30T11:31:42.980Z,32.07
2018-07-30T11:34:11.949Z,30.91
2018-07-30T11:36:40.675Z,30.18
2018-07-30T11:39:11.421Z,30.79
2018-07-30T11:41:40.507Z,29.87
2018-07-30T11:44:10.112Z,30.62
2018-07-30T11:46:39.832Z,29.01
2018-07-30T11:49:08.829Z,29.06
2018-07-30T11:51:38.101Z,29.48
2018-07-30T11:54:06.820Z,28.73
2018-07-30T11:56:35.562Z,28.31
2018-07-30T11:59:04.646Z,29.11
2018-07-30T12:01:33.587Z,29.46
2018-07-30T12:04:02.360Z,28.09
2018-07-30T12:06:31.281Z,27.88
2018-07-30T12:09:00.091Z,27.15
2018-07-30T12:11:28.796Z,26.70
2018-07-30T12:13:57.588Z,26.82
2018-07-30T12:16:27.780Z,26.99
2018-07-30T12:18:57.046Z,27.50
2018-07-30T12:21:26.021Z,26.12
2018-07-30T12:23:54.723Z,26.86
2018-07-30T12:26:23.407Z,25.68
2018-07-30T12:28:52.115Z,26.02
2018-07-30T12:31:21.396Z,25.98
2018-07-30T12:33:50.194Z,25.57
2018-07-30T12:36:18.966Z,25.76
2018-07-30T12:38:47.947Z,26.25
2018-07-30T12:41:17.167Z,26.57
2018-07-30T12:43:48.822Z,25.98
2018-07-30T12:46:17.588Z,25.65
2018-07-30T12:48:46.585Z,26.18
2018-07-30T12:51:15.542Z,25.59
2018-07-30T12:53:44.750Z,25.13
2018-07-30T12:56:13.705Z,25.00
2018-07-30T12:58:42.414Z,25.49
2018-07-30T13:01:11.421Z,24.78
2018-07-30T13:03:40.198Z,25.23
2018-07-30T13:06:09.489Z,25.42
2018-07-30T13:08:38.177Z,25.36
2018-07-30T13:11:07.133Z,25.35
2018-07-30T13:13:36.374Z,24.57
2018-07-30T13:16:05.400Z,24.73
2018-07-30T13:18:34.545Z,24.56
2018-07-30T13:21:03.292Z,24.78
2018-07-30T13:23:32.000Z,24.67
2018-07-30T13:26:01.043Z,24.66
2018-07-30T13:28:29.789Z,23.74
2018-07-30T13:30:58.903Z,23.83
2018-07-30T13:33:27.656Z,23.68
2018-07-30T13:35:56.393Z,25.13
2018-07-30T13:38:25.124Z,24.67
2018-07-30T13:40:53.859Z,24.45
2018-07-30T13:43:22.851Z,23.97
2018-07-30T13:45:51.882Z,24.03
2018-07-30T13:48:20.645Z,23.92
2018-07-30T13:50:50.295Z,24.86
2018-07-30T13:53:19.018Z,25.45
2018-07-30T13:55:48.187Z,25.35
2018-07-30T13:58:17.213Z,25.45
2018-07-30T14:00:45.999Z,26.90
2018-07-30T14:03:15.086Z,26.83
2018-07-30T14:05:43.821Z,25.99
2018-07-30T14:08:12.532Z,25.87
2018-07-30T14:10:41.293Z,25.78
2018-07-30T14:13:09.981Z,26.09
2018-07-30T14:15:39.012Z,24.95
2018-07-30T14:18:08.087Z,25.57
2018-07-30T14:20:36.827Z,24.79
2018-07-30T14:23:06.061Z,24.19
2018-07-30T14:25:34.788Z,25.05
2018-07-30T14:28:03.975Z,23.90
2018-07-30T14:30:33.273Z,23.52
2018-07-30T14:33:02.701Z,24.09
2018-07-30T14:35:31.789Z,23.09
2018-07-30T14:38:00.533Z,22.96
2018-07-30T14:40:29.279Z,24.33
2018-07-30T14:42:58.299Z,23.90
2018-07-30T14:45:27.045Z,22.99
2018-07-30T14:47:56.109Z,23.27
2018-07-30T14:50:24.823Z,23.36
2018-07-30T14:52:53.853Z,23.35
2018-07-30T14:55:22.720Z,23.30
2018-07-30T14:57:51.482Z,23.30
2018-07-30T15:00:20.186Z,23.83
2018-07-30T15:02:48.941Z,23.70
2018-07-30T15:05:21.081Z,23.23
2018-07-30T15:07:50.241Z,24.43
2018-07-30T15:10:19.276Z,24.49
2018-07-30T15:12:48.011Z,24.66
2018-07-30T15:15:17.088Z,24.18
2018-07-30T15:17:45.925Z,24.34
2018-07-30T15:20:21.051Z,24.02
2018-07-30T15:22:50.089Z,23.76
2018-07-30T15:25:18.822Z,24.48
2018-07-30T15:27:47.752Z,23.81
2018-07-30T15:30:16.474Z,23.57
2018-07-30T15:32:45.515Z,24.30
2018-07-30T15:35:14.687Z,25.01
2018-07-30T15:37:43.452Z,24.80
2018-07-30T15:40:12.515Z,24.42
2018-07-30T15:42:41.768Z,25.25
2018-07-30T15:45:10.756Z,24.77
2018-07-30T15:47:39.721Z,24.78
2018-07-30T15:50:08.674Z,24.79
2018-07-30T15:52:37.806Z,25.28
2018-07-30T15:55:06.635Z,25.11
2018-07-30T15:57:35.980Z,26.02
2018-07-30T16:00:05.605Z,25.52
2018-07-30T16:02:34.523Z,25.99
2018-07-30T16:07:32.350Z,25.51
2018-07-30T16:12:29.859Z,25.92
2018-07-30T16:14:58.646Z,25.24
2018-07-30T16:17:27.745Z,25.62
2018-07-30T16:19:56.782Z,25.73
2018-07-30T16:22:25.605Z,24.96
2018-07-30T16:24:54.861Z,25.03
2018-07-30T16:27:23.545Z,25.45
2018-07-30T16:29:52.238Z,25.31
2018-07-30T16:32:21.333Z,24.82
2018-07-30T16:34:50.070Z,24.19
2018-07-30T16:37:18.799Z,24.79
2018-07-30T16:39:47.869Z,24.70
2018-07-30T16:42:17.015Z,25.21
2018-07-30T16:44:46.161Z,24.71
2018-07-30T16:47:15.079Z,24.60
2018-07-30T16:49:43.859Z,25.11
2018-07-30T16:52:12.616Z,24.29
2018-07-30T16:54:41.375Z,24.40
2018-07-30T16:57:10.187Z,24.64
2018-07-30T16:59:39.213Z,24.69
2018-07-30T17:02:07.916Z,25.07
2018-07-30T17:04:36.611Z,24.71
2018-07-30T17:07:05.825Z,25.03
2018-07-30T17:09:34.550Z,25.08
2018-07-30T17:12:03.259Z,25.59
2018-07-30T17:14:31.981Z,25.94
2018-07-30T17:17:01.005Z,25.70
2018-07-30T17:19:30.011Z,26.05
2018-07-30T17:21:59.087Z,26.10
2018-07-30T17:24:27.831Z,26.01
2018-07-30T17:26:56.576Z,25.87
2018-07-30T17:29:25.362Z,26.78
2018-07-30T17:31:54.462Z,26.69
2018-07-30T17:34:23.399Z,27.05
2018-07-30T17:36:52.392Z,27.05
2018-07-30T17:39:21.814Z,26.92
2018-07-30T17:41:50.851Z,27.39
2018-07-30T17:44:19.683Z,27.56
2018-07-30T17:46:49.231Z,27.73
2018-07-30T17:49:17.950Z,27.46
2018-07-30T17:51:47.154Z,28.28
2018-07-30T17:54:16.226Z,27.98
2018-07-30T17:56:44.974Z,28.29
2018-07-30T17:59:13.967Z,28.13
2018-07-30T18:01:42.969Z,28.78
2018-07-30T18:04:11.905Z,28.45
2018-07-30T18:06:40.883Z,28.70
2018-07-30T18:09:10.370Z,29.33
2018-07-30T18:11:39.614Z,29.15
2018-07-30T18:14:08.456Z,29.20
2018-07-30T18:16:37.413Z,29.75
2018-07-30T18:19:06.423Z,29.89
2018-07-30T18:21:35.625Z,29.91
2018-07-30T18:24:04.651Z,30.19
2018-07-30T18:26:33.742Z,30.05
2018-07-30T18:29:02.776Z,30.33
2018-07-30T18:31:31.867Z,30.71
2018-07-30T18:34:00.920Z,31.12
2018-07-30T18:36:30.025Z,30.90
2018-07-30T18:38:58.726Z,31.35
2018-07-30T18:41:27.740Z,31.44
2018-07-30T18:43:57.059Z,31.59
2018-07-30T18:46:25.800Z,32.02
2018-07-30T18:48:54.487Z,32.20
2018-07-30T18:51:23.507Z,32.43
2018-07-30T18:53:52.609Z,32.40
2018-07-30T18:56:21.916Z,32.12
2018-07-30T18:58:51.150Z,31.98
2018-07-30T19:01:20.184Z,32.71
2018-07-30T19:03:49.584Z,32.64
2018-07-30T19:06:18.577Z,32.87
2018-07-30T19:08:47.254Z,32.78
2018-07-30T19:11:16.001Z,33.59
2018-07-30T19:13:45.039Z,33.24
2018-07-30T19:16:13.981Z,34.05
2018-07-30T19:18:42.679Z,34.19
2018-07-30T19:21:11.717Z,34.06
2018-07-30T19:23:40.464Z,34.06
2018-07-30T19:26:09.468Z,34.90
2018-07-30T19:28:38.798Z,34.62
2018-07-30T19:31:08.041Z,34.93
2018-07-30T19:33:36.775Z,35.72
2018-07-30T19:36:05.656Z,35.60
2018-07-30T19:38:34.418Z,35.89
2018-07-30T19:41:03.359Z,36.45
2018-07-30T19:43:32.079Z,36.04
2018-07-30T19:46:00.809Z,36.59
2018-07-30T19:48:29.542Z,36.64
2018-07-30T19:50:58.722Z,36.45
2018-07-30T19:53:27.434Z,37.14
2018-07-30T19:55:56.190Z,36.79
2018-07-30T19:58:25.854Z,36.83
2018-07-30T20:00:54.315Z,37.96
2018-07-30T20:03:23.562Z,38.20
2018-07-30T20:05:52.586Z,37.85
2018-07-30T20:08:21.808Z,37.66
2018-07-30T20:10:50.612Z,38.10
2018-07-30T20:13:19.739Z,39.06
2018-07-30T20:15:51.513Z,38.62
2018-07-30T20:18:20.274Z,38.93
2018-07-30T20:20:49.081Z,38.95
2018-07-30T20:23:17.881Z,39.77
2018-07-30T20:25:46.631Z,39.40
2018-07-30T20:28:15.359Z,40.28
2018-07-30T20:30:44.217Z,39.85
2018-07-30T20:33:12.909Z,40.46
2018-07-30T20:35:41.752Z,40.12
2018-07-30T20:38:11.382Z,41.23
2018-07-30T20:40:40.057Z,41.32
2018-07-30T20:43:09.276Z,41.42
2018-07-30T20:45:37.962Z,40.88
2018-07-30T20:48:06.666Z,41.85
2018-07-30T20:50:35.967Z,41.98
2018-07-30T20:53:04.700Z,41.63
2018-07-30T20:55:33.937Z,41.36
2018-07-30T20:58:03.251Z,41.74
2018-07-30T21:00:31.949Z,42.59
2018-07-30T21:03:01.476Z,42.25
2018-07-30T21:05:32.772Z,42.50
2018-07-30T21:08:02.087Z,43.03
2018-07-30T21:10:30.854Z,43.57
2018-07-30T21:12:59.577Z,43.71
2018-07-30T21:15:29.705Z,44.74
2018-07-30T21:17:58.492Z,44.70
2018-07-30T21:20:27.262Z,44.89
2018-07-30T21:22:55.985Z,45.10
2018-07-30T21:25:24.726Z,45.34
2018-07-30T21:27:53.595Z,45.99
2018-07-30T21:30:22.815Z,46.86
2018-07-30T21:32:51.730Z,46.57
2018-07-30T21:35:21.824Z,46.67
2018-07-30T21:37:50.693Z,47.21
2018-07-30T21:40:19.632Z,46.53
2018-07-30T21:42:49.022Z,47.09
2018-07-30T21:45:18.027Z,47.67
2018-07-30T21:47:46.958Z,48.40
2018-07-30T21:50:16.705Z,48.11
2018-07-30T21:52:45.788Z,48.73
2018-07-30T21:55:14.590Z,48.54
2018-07-30T21:57:43.445Z,49.22
2018-07-30T22:00:15.011Z,48.41
2018-07-30T22:02:44.975Z,49.10
2018-07-30T22:05:16.127Z,49.65
2018-07-30T22:07:45.758Z,50.06
2018-07-30T22:10:14.613Z,50.01
2018-07-30T22:12:43.360Z,51.28
2018-07-30T22:15:12.547Z,52.04
2018-07-30T22:17:41.511Z,52.42
2018-07-30T22:20:10.232Z,52.59
2018-07-30T22:22:38.993Z,53.02
2018-07-30T22:25:07.946Z,53.28
2018-07-30T22:27:36.772Z,53.64
2018-07-30T22:30:07.798Z,54.18
2018-07-30T22:32:36.850Z,54.16
2018-07-30T22:35:06.695Z,55.09
2018-07-30T22:37:35.429Z,55.38
2018-07-30T22:40:04.607Z,55.41
2018-07-30T22:42:33.457Z,55.65
2018-07-30T22:45:02.212Z,55.96
2018-07-30T22:47:30.938Z,56.16
2018-07-30T22:49:59.812Z,55.59
2018-07-30T22:52:28.653Z,56.13
2018-07-30T22:54:57.798Z,56.32
2018-07-30T22:57:26.597Z,57.55
2018-07-30T22:59:55.460Z,57.84
2018-07-30T23:02:24.277Z,58.19
2018-07-30T23:04:53.260Z,58.70
2018-07-30T23:07:22.490Z,60.36
2018-07-30T23:09:51.520Z,61.40
2018-07-30T23:12:20.540Z,62.48
2018-07-30T23:14:49.606Z,63.93
2018-07-30T23:17:18.667Z,65.39
2018-07-30T23:19:47.753Z,67.47
2018-07-30T23:22:16.481Z,68.12
2018-07-30T23:24:45.817Z,69.88
2018-07-30T23:27:14.597Z,70.35
2018-07-30T23:29:43.356Z,71.42
2018-07-30T23:32:12.077Z,72.08
2018-07-30T23:34:40.817Z,72.70
2018-07-30T23:37:09.612Z,72.90
2018-07-30T23:39:38.388Z,73.61
2018-07-30T23:42:08.404Z,73.27
2018-07-30T23:44:38.683Z,74.22
2018-07-30T23:47:08.507Z,73.59
2018-07-30T23:49:38.627Z,74.44
2018-07-30T23:52:09.475Z,75.50
2018-07-30T23:54:39.624Z,75.70
2018-07-30T23:57:09.396Z,75.84
2018-07-30T23:59:39.791Z,76.34
